Time,TemperatureF,DewpointF,PressureIn,WindDirection,WindDirectionDegrees,WindSpeedMPH,WindSpeedGustMPH,Humidity,HourlyPrecipIn,Conditions,Clouds,dailyrainin,SoftwareType,DateUTC
2013-02-01 00:05:00,25.8,22.0,30.23,WSW,242,0.0,-999.0,85,-99.99,,,0.00,weatherlink.com 1.10,2013-02-01 07:05:00,
2013-02-01 00:20:00,26.0,22.0,30.20,WSW,242,2.0,-999.0,86,-99.99,,,0.00,weatherlink.com 1.10,2013-02-01 07:20:00,
2013-02-01 00:35:00,26.0,22.0,30.20,WSW,242,2.0,-999.0,86,-99.99,,,0.00,weatherlink.com 1.10,2013-02-01 07:35:00,
2013-02-01 00:50:00,26.1,23.0,30.20,WSW,241,3.0,-999.0,86,-99.99,,,0.00,weatherlink.com 1.10,2013-02-01 07:50:00,
2013-02-01 01:06:00,26.3,23.0,30.20,WSW,242,5.0,-999.0,86,-99.99,,,0.00,weatherlink.com 1.10,2013-02-01 08:06:00,
2013-02-01 01:20:00,25.6,22.0,30.19,WSW,242,0.0,-999.0,85,-99.99,,,0.00,weatherlink.com 1.10,2013-02-01 08:20:00,
2013-02-01 01:36:00,25.0,21.0,30.19,WSW,242,0.0,-999.0,86,-99.99,,,0.00,weatherlink.com 1.10,2013-02-01 08:36:00,
2013-02-01 01:50:00,25.3,22.0,30.19,WSW,242,0.0,-999.0,86,-99.99,,,0.00,weatherlink.com 1.10,2013-02-01 08:50:00,
2013-02-01 02:06:00,25.7,22.0,30.19,WSW,242,3.0,-999.0,86,-99.99,,,0.00,weatherlink.com 1.10,2013-02-01 09:06:00,
2013-02-01 02:20:00,25.4,22.0,30.20,WSW,242,0.0,-999.0,86,-99.99,,,0.00,weatherlink.com 1.10,2013-02-01 09:20:00,
2013-02-01 02:36:00,24.7,21.0,30.20,WSW,242,1.0,-999.0,86,-99.99,,,0.00,weatherlink.com 1.10,2013-02-01 09:36:00,
2013-02-01 02:50:00,25.4,22.0,30.20,WSW,242,0.0,-999.0,87,-99.99,,,0.00,weatherlink.com 1.10,2013-02-01 09:50:00,
2013-02-01 03:06:00,24.2,20.0,30.20,WSW,242,2.0,-999.0,85,-99.99,,,0.00,weatherlink.com 1.10,2013-02-01 10:06:00,
2013-02-01 03:22:00,23.2,20.0,30.22,WSW,242,2.0,-999.0,86,-99.99,,,0.00,weatherlink.com 1.10,2013-02-01 10:22:00,
2013-02-01 03:35:00,23.5,20.0,30.23,WSW,242,2.0,-999.0,87,-99.99,,,0.00,weatherlink.com 1.10,2013-02-01 10:35:00,
2013-02-01 03:51:00,24.4,21.0,30.22,WSW,242,0.0,-999.0,87,-99.99,,,0.00,weatherlink.com 1.10,2013-02-01 10:51:00,
2013-02-01 04:06:00,24.4,21.0,30.21,WSW,242,0.0,-999.0,86,-99.99,,,0.00,weatherlink.com 1.10,2013-02-01 11:06:00,
2013-02-01 04:21:00,24.2,21.0,30.23,WSW,242,0.0,-999.0,86,-99.99,,,0.00,weatherlink.com 1.10,2013-02-01 11:21:00,
2013-02-01 04:36:00,23.3,20.0,30.23,WSW,242,2.0,-999.0,86,-99.99,,,0.00,weatherlink.com 1.10,2013-02-01 11:36:00,
2013-02-01 04:51:00,23.3,20.0,30.23,WSW,242,1.0,-999.0,86,-99.99,,,0.00,weatherlink.com 1.10,2013-02-01 11:51:00,
2013-02-01 05:06:00,22.2,19.0,30.23,WSW,242,1.0,-999.0,86,-99.99,,,0.00,weatherlink.com 1.10,2013-02-01 12:06:00,
2013-02-01 05:21:00,21.8,18.0,30.26,WSW,242,3.0,-999.0,86,-99.99,,,0.00,weatherlink.com 1.10,2013-02-01 12:21:00,
2013-02-01 05:36:00,21.6,18.0,30.26,WSW,242,0.0,-999.0,86,-99.99,,,0.00,weatherlink.com 1.10,2013-02-01 12:36:00,
2013-02-01 05:51:00,21.6,18.0,30.25,WSW,242,0.0,-999.0,86,-99.99,,,0.00,weatherlink.com 1.10,2013-02-01 12:51:00,
2013-02-01 06:05:00,21.9,19.0,30.25,WSW,242,3.0,-999.0,87,-99.99,,,0.00,weatherlink.com 1.10,2013-02-01 13:05:00,
2013-02-01 06:20:00,21.9,18.0,30.27,WSW,242,0.0,-999.0,86,-99.99,,,0.00,weatherlink.com 1.10,2013-02-01 13:20:00,
2013-02-01 06:35:00,21.8,18.0,30.27,WSW,242,2.0,-999.0,86,-99.99,,,0.00,weatherlink.com 1.10,2013-02-01 13:35:00,
2013-02-01 06:50:00,21.6,18.0,30.28,WSW,242,0.0,-999.0,86,-99.99,,,0.00,weatherlink.com 1.10,2013-02-01 13:50:00,
2013-02-01 07:05:00,21.4,18.0,30.28,WSW,242,2.0,-999.0,86,-99.99,,,0.00,weatherlink.com 1.10,2013-02-01 14:05:00,
2013-02-01 07:20:00,21.3,18.0,30.31,WSW,242,0.0,-999.0,86,-99.99,,,0.00,weatherlink.com 1.10,2013-02-01 14:20:00,
2013-02-01 07:35:00,21.9,18.0,30.31,WSW,242,0.0,-999.0,86,-99.99,,,0.00,weatherlink.com 1.10,2013-02-01 14:35:00,
2013-02-01 07:50:00,23.5,20.0,30.31,WSW,242,2.0,-999.0,85,-99.99,,,0.00,weatherlink.com 1.10,2013-02-01 14:50:00,
2013-02-01 08:05:00,24.4,20.0,30.31,WSW,242,2.0,-999.0,84,-99.99,,,0.00,weatherlink.com 1.10,2013-02-01 15:05:00,
2013-02-01 08:21:00,25.3,21.0,30.30,WSW,241,2.0,-999.0,84,-99.99,,,0.00,weatherlink.com 1.10,2013-02-01 15:21:00,
2013-02-01 08:35:00,27.0,22.0,30.29,WSW,241,3.0,-999.0,82,-99.99,,,0.00,weatherlink.com 1.10,2013-02-01 15:35:00,
2013-02-01 08:50:00,28.2,23.0,30.29,WSW,241,2.0,-999.0,81,-99.99,,,0.00,weatherlink.com 1.10,2013-02-01 15:50:00,
2013-02-01 09:05:00,30.1,24.0,30.27,WSW,241,3.0,-999.0,79,-99.99,,,0.01,weatherlink.com 1.10,2013-02-01 16:05:00,
2013-02-01 09:20:00,30.9,24.0,30.29,WSW,241,3.0,-999.0,76,-99.99,,,0.01,weatherlink.com 1.10,2013-02-01 16:20:00,
2013-02-01 09:36:00,32.4,25.0,30.28,WSW,241,2.0,-999.0,73,-99.99,,,0.01,weatherlink.com 1.10,2013-02-01 16:36:00,
2013-02-01 09:51:00,34.7,26.0,30.28,WSW,241,2.0,-999.0,71,-99.99,,,0.01,weatherlink.com 1.10,2013-02-01 16:51:00,
2013-02-01 10:06:00,35.9,26.0,30.27,WSW,241,0.0,-999.0,67,-99.99,,,0.01,weatherlink.com 1.10,2013-02-01 17:06:00,
2013-02-01 10:21:00,37.0,26.0,30.27,WSW,241,2.0,-999.0,65,-99.99,,,0.01,weatherlink.com 1.10,2013-02-01 17:21:00,
2013-02-01 10:36:00,37.0,26.0,30.27,WSW,241,3.0,-999.0,65,-99.99,,,0.01,weatherlink.com 1.10,2013-02-01 17:36:00,
2013-02-01 11:06:00,37.8,26.0,30.25,WSW,242,1.0,-999.0,63,-99.99,,,0.01,weatherlink.com 1.10,2013-02-01 18:06:00,
2013-02-01 11:21:00,38.6,25.0,30.26,WSW,241,0.0,-999.0,59,-99.99,,,0.01,weatherlink.com 1.10,2013-02-01 18:21:00,
2013-02-01 11:36:00,39.2,26.0,30.26,WSW,241,3.0,-999.0,59,-99.99,,,0.01,weatherlink.com 1.10,2013-02-01 18:36:00,
2013-02-01 11:51:00,39.9,26.0,30.24,WSW,241,3.0,-999.0,57,-99.99,,,0.01,weatherlink.com 1.10,2013-02-01 18:51:00,
2013-02-01 12:06:00,40.3,26.0,30.23,WSW,241,0.0,-999.0,57,-99.99,,,0.01,weatherlink.com 1.10,2013-02-01 19:06:00,
2013-02-01 12:21:00,41.3,26.0,30.23,WSW,241,3.0,-999.0,56,-99.99,,,0.01,weatherlink.com 1.10,2013-02-01 19:21:00,
2013-02-01 12:36:00,42.3,27.0,30.20,WSW,241,0.0,-999.0,55,-99.99,,,0.01,weatherlink.com 1.10,2013-02-01 19:36:00,
2013-02-01 12:51:00,43.6,28.0,30.19,WSW,240,4.0,-999.0,54,-99.99,,,0.01,weatherlink.com 1.10,2013-02-01 19:51:00,
2013-02-01 13:06:00,44.5,28.0,30.17,WSW,241,5.0,-999.0,52,-99.99,,,0.01,weatherlink.com 1.10,2013-02-01 20:06:00,
2013-02-01 13:21:00,44.3,27.0,30.17,WSW,246,5.0,-999.0,51,-99.99,,,0.01,weatherlink.com 1.10,2013-02-01 20:21:00,
2013-02-01 13:37:00,44.9,28.0,30.16,WSW,253,11.0,-999.0,51,-99.99,,,0.01,weatherlink.com 1.10,2013-02-01 20:37:00,
2013-02-01 13:51:00,45.1,28.0,30.16,West,270,5.0,-999.0,51,-99.99,,,0.01,weatherlink.com 1.10,2013-02-01 20:51:00,
2013-02-01 14:06:00,45.8,26.0,30.15,WSW,248,10.0,-999.0,47,-99.99,,,0.01,weatherlink.com 1.10,2013-02-01 21:06:00,
2013-02-01 14:21:00,46.5,27.0,30.16,WSW,250,3.0,-999.0,46,-99.99,,,0.01,weatherlink.com 1.10,2013-02-01 21:21:00,
2013-02-01 14:37:00,47.0,26.0,30.15,WSW,250,9.0,-999.0,44,-99.99,,,0.01,weatherlink.com 1.10,2013-02-01 21:37:00,
2013-02-01 14:51:00,47.0,26.0,30.15,WSW,245,7.0,-999.0,45,-99.99,,,0.01,weatherlink.com 1.10,2013-02-01 21:51:00,
2013-02-01 15:06:00,46.8,26.0,30.14,WSW,248,10.0,-999.0,45,-99.99,,,0.01,weatherlink.com 1.10,2013-02-01 22:06:00,
2013-02-01 15:23:00,47.0,26.0,30.15,SW,235,13.0,-999.0,44,-99.99,,,0.01,weatherlink.com 1.10,2013-02-01 22:23:00,
2013-02-01 15:37:00,47.1,25.0,30.15,SW,227,9.0,-999.0,43,-99.99,,,0.01,weatherlink.com 1.10,2013-02-01 22:37:00,
2013-02-01 15:51:00,47.1,25.0,30.15,WSW,244,10.0,-999.0,43,-99.99,,,0.01,weatherlink.com 1.10,2013-02-01 22:51:00,
2013-02-01 16:06:00,46.7,27.0,30.16,WSW,239,11.0,-999.0,46,-99.99,,,0.01,weatherlink.com 1.10,2013-02-01 23:06:00,
2013-02-01 16:21:00,46.1,27.0,30.17,WSW,255,17.0,-999.0,48,-99.99,,,0.01,weatherlink.com 1.10,2013-02-01 23:21:00,
2013-02-01 16:37:00,45.5,27.0,30.17,WNW,283,11.0,-999.0,49,-99.99,,,0.01,weatherlink.com 1.10,2013-02-01 23:37:00,
2013-02-01 16:52:00,44.9,26.0,30.19,WSW,252,10.0,-999.0,48,-99.99,,,0.01,weatherlink.com 1.10,2013-02-01 23:52:00,
2013-02-01 17:07:00,44.2,26.0,30.19,WSW,249,11.0,-999.0,49,-99.99,,,0.01,weatherlink.com 1.10,2013-02-02 00:07:00,
2013-02-01 17:22:00,43.1,25.0,30.19,WSW,253,7.0,-999.0,49,-99.99,,,0.01,weatherlink.com 1.10,2013-02-02 00:22:00,
2013-02-01 17:37:00,41.6,25.0,30.20,WSW,253,8.0,-999.0,52,-99.99,,,0.01,weatherlink.com 1.10,2013-02-02 00:37:00,
2013-02-01 17:52:00,40.6,24.0,30.22,WSW,248,7.0,-999.0,52,-99.99,,,0.01,weatherlink.com 1.10,2013-02-02 00:52:00,
2013-02-01 18:08:00,40.1,23.0,30.23,WSW,257,13.0,-999.0,51,-99.99,,,0.01,weatherlink.com 1.10,2013-02-02 01:08:00,
2013-02-01 18:23:00,39.3,24.0,30.23,West,259,10.0,-999.0,54,-99.99,,,0.01,weatherlink.com 1.10,2013-02-02 01:23:00,
2013-02-01 18:38:00,38.3,24.0,30.25,West,259,7.0,-999.0,56,-99.99,,,0.01,weatherlink.com 1.10,2013-02-02 01:38:00,
2013-02-01 18:54:00,37.3,24.0,30.25,West,262,7.0,-999.0,59,-99.99,,,0.01,weatherlink.com 1.10,2013-02-02 01:54:00,
2013-02-01 19:08:00,37.0,24.0,30.27,West,269,5.0,-999.0,59,-99.99,,,0.01,weatherlink.com 1.10,2013-02-02 02:08:00,
2013-02-01 19:23:00,37.2,23.0,30.26,West,271,0.0,-999.0,58,-99.99,,,0.01,weatherlink.com 1.10,2013-02-02 02:23:00,
2013-02-01 19:38:00,35.2,23.0,30.27,West,271,0.0,-999.0,62,-99.99,,,0.01,weatherlink.com 1.10,2013-02-02 02:38:00,
2013-02-01 19:53:00,34.4,23.0,30.28,West,271,0.0,-999.0,64,-99.99,,,0.01,weatherlink.com 1.10,2013-02-02 02:53:00,
2013-02-01 20:08:00,33.8,23.0,30.29,West,271,0.0,-999.0,66,-99.99,,,0.01,weatherlink.com 1.10,2013-02-02 03:08:00,
2013-02-01 20:23:00,34.4,24.0,30.25,West,271,0.0,-999.0,65,-99.99,,,0.01,weatherlink.com 1.10,2013-02-02 03:23:00,
2013-02-01 20:38:00,34.4,23.0,30.26,West,271,0.0,-999.0,64,-99.99,,,0.01,weatherlink.com 1.10,2013-02-02 03:38:00,
2013-02-01 20:53:00,34.4,24.0,30.26,West,271,2.0,-999.0,65,-99.99,,,0.01,weatherlink.com 1.10,2013-02-02 03:53:00,
2013-02-01 21:08:00,34.7,24.0,30.25,West,271,2.0,-999.0,64,-99.99,,,0.01,weatherlink.com 1.10,2013-02-02 04:08:00,
2013-02-01 21:23:00,33.8,23.0,30.22,West,271,2.0,-999.0,66,-99.99,,,0.01,weatherlink.com 1.10,2013-02-02 04:23:00,
2013-02-01 21:38:00,34.1,24.0,30.24,West,271,4.0,-999.0,67,-99.99,,,0.01,weatherlink.com 1.10,2013-02-02 04:38:00,
2013-02-01 21:53:00,33.8,24.0,30.24,West,271,2.0,-999.0,68,-99.99,,,0.01,weatherlink.com 1.10,2013-02-02 04:53:00,
2013-02-01 22:08:00,34.6,24.0,30.25,West,271,3.0,-999.0,66,-99.99,,,0.01,weatherlink.com 1.10,2013-02-02 05:08:00,
2013-02-01 22:23:00,32.8,23.0,30.23,West,271,0.0,-999.0,68,-99.99,,,0.01,weatherlink.com 1.10,2013-02-02 05:23:00,
2013-02-01 22:38:00,32.5,24.0,30.24,West,271,0.0,-999.0,71,-99.99,,,0.01,weatherlink.com 1.10,2013-02-02 05:38:00,
2013-02-01 22:53:00,33.2,24.0,30.24,West,271,4.0,-999.0,70,-99.99,,,0.01,weatherlink.com 1.10,2013-02-02 05:53:00,
2013-02-01 23:08:00,33.4,24.0,30.25,West,271,6.0,-999.0,69,-99.99,,,0.01,weatherlink.com 1.10,2013-02-02 06:08:00,
2013-02-01 23:23:00,32.8,24.0,30.22,West,270,6.0,-999.0,70,-99.99,,,0.01,weatherlink.com 1.10,2013-02-02 06:23:00,
2013-02-01 23:38:00,32.7,24.0,30.22,West,269,6.0,-999.0,71,-99.99,,,0.01,weatherlink.com 1.10,2013-02-02 06:38:00,
2013-02-01 23:53:00,32.5,24.0,30.22,West,269,0.0,-999.0,71,-99.99,,,0.01,weatherlink.com 1.10,2013-02-02 06:53:00,